Ashern, Canada
Current Conditions -  °F | °C
As of 2:00 PM on Sunday 25 Jan 2015 (Local Time) from CYDN Reporting Station
Clear Clear  
Wind Chill: 14°   Ceiling: Unl
Heat Index: 25°   Visibility: 9mi
Dew Point: 19°   Wind: 12mph
Humidity: 80%   Direction: 250°WSW
Pressure: 29.81"   Gusts: NA
Location:  51.18°N, 98.33°W
Report Text: CYDN 252000Z AUTO 25010KT 9SM CLR M04/M07 A2981 RMK PRESFR SLP117
Loading
Personal Weather Stations






























Interactive Weather Map New forecast layout! Learn more

10-Day Weather Forecast

Advertisements
Track Severe Weather on mobile